Time;durP1;ratioP1;P1;durP2;ratioP2;P2;SDS_P1;SDS_P2;PMS_P1;PMS_P2;Temp;Humidity;BMP_temperature;BMP_pressure;BME280_temperature;BME280_humidity;BME280_pressure;Samples;Min_cycle;Max_cycle;Signal;HPM_P1;HPM_P2
2023/09/25 00:03:26;;;;;;;3.10;1.70;;;;;12.80;101548.00;;;;9978973;29;20633;-75
2023/09/25 00:08:28;;;;;;;6.00;2.37;;;;;12.80;101545.00;;;;9973173;29;20297;-76
2023/09/25 00:13:30;;;;;;;5.03;2.23;;;;;12.80;101540.00;;;;9949065;29;20830;-74
2023/09/25 00:18:32;;;;;;;3.70;2.20;;;;;12.80;101545.00;;;;9968778;29;20661;-76
2023/09/25 00:23:34;;;;;;;5.40;2.07;;;;;12.80;101541.00;;;;9987062;29;20279;-76
2023/09/25 00:28:36;;;;;;;5.37;3.23;;;;;12.80;101538.00;;;;9978148;29;20246;-76
2023/09/25 00:33:38;;;;;;;3.63;1.97;;;;;12.80;101544.00;;;;9923361;29;20229;-77
2023/09/25 00:38:40;;;;;;;2.20;1.73;;;;;12.70;101539.00;;;;9971040;29;20248;-85
2023/09/25 00:43:42;;;;;;;3.60;2.03;;;;;12.70;101549.00;;;;10012002;29;20221;-84
2023/09/25 00:48:44;;;;;;;3.83;2.33;;;;;12.60;101536.00;;;;9957435;29;20218;-84
2023/09/25 00:53:48;;;;;;;3.50;1.77;;;;;12.60;101539.00;;;;10012580;29;20216;-84
2023/09/25 00:58:51;;;;;;;3.33;2.07;;;;;12.50;101534.00;;;;9982920;29;20241;-85
2023/09/25 01:03:53;;;;;;;4.60;1.90;;;;;12.40;101535.00;;;;10051178;24;20252;-91
2023/09/25 01:08:58;;;;;;;2.43;2.00;;;;;12.40;101533.00;;;;10295546;23;20236;-92
2023/09/25 01:14:04;;;;;;;3.13;1.77;;;;;12.30;101531.00;;;;10071721;29;20217;-92
2023/09/25 01:19:07;;;;;;;3.03;2.13;;;;;12.30;101524.00;;;;10040582;29;20204;-90
2023/09/25 01:24:09;;;;;;;3.23;1.97;;;;;12.20;101526.00;;;;10218984;23;20292;-92
2023/09/25 01:39:55;;;;;;;7.60;2.30;;;;;12.10;101522.00;;;;13045956;22;20298;-91
2023/09/25 01:45:08;;;;;;;6.17;2.07;;;;;12.20;101524.00;;;;12984295;22;20180;-92
2023/09/25 01:50:13;;;;;;;2.80;1.87;;;;;12.20;101519.00;;;;12931050;22;20199;-91
2023/09/25 02:01:32;;;;;;;4.23;2.00;;;;;12.30;101523.00;;;;12977927;22;20203;-91
2023/09/25 02:06:37;;;;;;;3.77;2.20;;;;;12.30;101524.00;;;;12953645;22;20184;-90
2023/09/25 02:11:39;;;;;;;6.70;2.17;;;;;12.30;101512.00;;;;12976199;22;20257;-92
2023/09/25 02:16:41;;;;;;;3.70;2.10;;;;;12.30;101518.00;;;;13039218;22;20247;-89
2023/09/25 02:21:47;;;;;;;3.03;1.90;;;;;12.30;101510.00;;;;13002749;22;20195;-89
2023/09/25 02:26:49;;;;;;;4.00;1.90;;;;;12.30;101503.00;;;;13011315;22;20238;-90
2023/09/25 02:31:53;;;;;;;3.70;2.10;;;;;12.20;101499.00;;;;12943362;22;20207;-89
2023/09/25 02:36:54;;;;;;;3.40;2.00;;;;;12.10;101507.00;;;;12943316;22;20173;-89
2023/09/25 02:41:56;;;;;;;3.50;1.90;;;;;12.10;101513.00;;;;12927524;22;20172;-90
2023/09/25 02:46:58;;;;;;;5.43;2.00;;;;;12.00;101513.00;;;;12924569;22;20203;-90
2023/09/25 02:51:59;;;;;;;4.80;2.40;;;;;12.00;101511.00;;;;12903919;22;20168;-90
2023/09/25 02:57:01;;;;;;;2.87;1.90;;;;;12.10;101510.00;;;;12954807;22;20179;-90
2023/09/25 03:02:03;;;;;;;3.73;1.90;;;;;12.10;101505.00;;;;12932981;22;20702;-89
2023/09/25 03:07:06;;;;;;;2.90;1.70;;;;;12.10;101509.00;;;;12971771;22;20236;-89
2023/09/25 03:12:07;;;;;;;3.23;1.77;;;;;12.10;101508.00;;;;12917040;22;20165;-90
2023/09/25 03:17:12;;;;;;;3.10;2.07;;;;;12.10;101516.00;;;;12927358;22;20788;-90
2023/09/25 03:22:14;;;;;;;3.73;2.13;;;;;12.00;101514.00;;;;12896633;22;20161;-89
2023/09/25 03:27:16;;;;;;;3.43;2.00;;;;;12.00;101516.00;;;;12951276;22;20235;-89
2023/09/25 03:32:18;;;;;;;4.07;2.00;;;;;12.00;101520.00;;;;12948279;22;20482;-90
2023/09/25 03:37:21;;;;;;;3.70;1.77;;;;;12.00;101528.00;;;;12966604;22;20234;-89
2023/09/25 03:42:26;;;;;;;4.77;2.10;;;;;12.00;101527.00;;;;12894602;22;20648;-89
2023/09/25 03:47:28;;;;;;;5.77;2.40;;;;;11.90;101525.00;;;;12946464;22;20197;-91
2023/09/25 03:52:29;;;;;;;2.63;1.83;;;;;11.80;101524.00;;;;12934692;22;20169;-89
2023/09/25 03:57:31;;;;;;;3.37;1.90;;;;;11.90;101524.00;;;;12936106;22;20200;-90
2023/09/25 04:02:35;;;;;;;5.47;1.80;;;;;11.90;101523.00;;;;12935542;22;20305;-90
2023/09/25 04:07:39;;;;;;;4.37;2.00;;;;;11.90;101524.00;;;;12936025;22;20203;-89
2023/09/25 04:12:41;;;;;;;3.20;1.83;;;;;11.90;101527.00;;;;12907971;22;20386;-88
2023/09/25 04:17:43;;;;;;;3.03;2.10;;;;;11.80;101516.00;;;;12934894;22;20176;-89
2023/09/25 04:22:45;;;;;;;3.87;2.30;;;;;11.90;101522.00;;;;12931260;22;20183;-90
2023/09/25 04:27:53;;;;;;;3.77;1.87;;;;;11.90;101525.00;;;;12903799;22;20437;-90
2023/09/25 04:32:55;;;;;;;6.60;2.53;;;;;11.90;101524.00;;;;12933574;22;20196;-89
2023/09/25 04:37:57;;;;;;;4.53;2.23;;;;;11.80;101536.00;;;;12953292;22;20179;-89
2023/09/25 04:43:00;;;;;;;3.10;2.30;;;;;11.80;101550.00;;;;12927368;22;20169;-90
2023/09/25 04:48:02;;;;;;;3.87;1.80;;;;;11.80;101549.00;;;;12976618;22;20180;-89
2023/09/25 04:53:05;;;;;;;4.47;2.10;;;;;11.70;101551.00;;;;12930774;22;20173;-90
2023/09/25 04:58:11;;;;;;;5.40;2.23;;;;;11.70;101558.00;;;;12923545;22;20208;-90
2023/09/25 05:03:16;;;;;;;4.40;2.00;;;;;11.60;101559.00;;;;12945583;22;20538;-89
2023/09/25 05:08:18;;;;;;;5.80;1.83;;;;;11.50;101565.00;;;;12899204;22;20719;-89
2023/09/25 05:13:20;;;;;;;5.13;2.17;;;;;11.40;101571.00;;;;12916447;22;20189;-89
2023/09/25 05:18:21;;;;;;;3.00;2.10;;;;;11.40;101565.00;;;;12949411;22;20176;-89
2023/09/25 05:23:24;;;;;;;7.00;2.33;;;;;11.30;101555.00;;;;12941840;22;20751;-90
2023/09/25 05:28:29;;;;;;;6.17;2.20;;;;;11.30;101564.00;;;;12948302;22;20202;-89
2023/09/25 05:33:33;;;;;;;3.53;1.90;;;;;11.40;101553.00;;;;12919068;22;20169;-90
2023/09/25 05:38:35;;;;;;;5.30;2.07;;;;;11.40;101559.00;;;;12944624;22;20180;-90
2023/09/25 05:43:40;;;;;;;5.30;1.80;;;;;11.50;101565.00;;;;12905957;22;20234;-89
2023/09/25 05:48:41;;;;;;;2.10;1.90;;;;;11.60;101573.00;;;;12906634;22;20192;-89
2023/09/25 05:53:44;;;;;;;3.63;2.67;;;;;11.80;101573.00;;;;12918364;22;20288;-81
2023/09/25 05:58:45;;;;;;;2.80;1.93;;;;;12.00;101577.00;;;;12922361;22;20285;-82
2023/09/25 06:03:47;;;;;;;4.30;2.10;;;;;12.10;101577.00;;;;12952359;22;20189;-81
2023/09/25 06:08:56;;;;;;;4.03;2.03;;;;;12.30;101576.00;;;;12863859;22;20176;31
2023/09/25 06:20:15;;;;;;;5.30;2.00;;;;;12.60;101585.00;;;;12969728;22;20184;-84
2023/09/25 06:25:19;;;;;;;3.90;1.40;;;;;12.90;101580.00;;;;13028708;22;20188;-85
2023/09/25 06:30:22;;;;;;;5.03;1.90;;;;;13.20;101584.00;;;;12932926;22;20211;-84
2023/09/25 06:35:39;;;;;;;4.55;2.30;;;;;13.50;101588.00;;;;12875714;22;20197;31
2023/09/25 06:47:20;;;;;;;5.10;1.90;;;;;14.10;101601.00;;;;12882910;22;20231;31
2023/09/25 06:52:51;;;;;;;7.03;2.03;;;;;14.40;101586.00;;;;12811845;22;21638;31
2023/09/25 07:10:09;;;;;;;4.47;2.35;;;;;14.80;101586.00;;;;12898808;22;20204;-91
2023/09/25 07:15:45;;;;;;;3.22;1.83;;;;;14.90;101589.00;;;;12882446;22;20184;31
2023/09/25 07:20:53;;;;;;;2.50;1.52;;;;;15.10;101585.00;;;;12969974;22;20207;-84
2023/09/25 07:26:02;;;;;;;3.30;1.70;;;;;15.20;101586.00;;;;13056641;22;20191;-84
2023/09/25 07:31:05;;;;;;;2.75;1.58;;;;;15.40;101603.00;;;;13003535;22;20231;-83
2023/09/25 07:36:06;;;;;;;5.93;2.17;;;;;15.70;101606.00;;;;13007199;22;20179;-84
2023/09/25 07:41:12;;;;;;;7.53;2.00;;;;;15.80;101606.00;;;;12968083;22;20191;-83
2023/09/25 07:46:13;;;;;;;4.63;1.52;;;;;16.10;101606.00;;;;13074726;22;20212;-83
2023/09/25 07:51:14;;;;;;;6.00;1.90;;;;;16.20;101602.00;;;;13001385;22;20187;-83
2023/09/25 07:56:15;;;;;;;6.80;2.38;;;;;16.50;101598.00;;;;13069516;22;20167;-85
2023/09/25 08:01:17;;;;;;;4.57;1.90;;;;;16.80;101602.00;;;;13050728;22;20235;-84
2023/09/25 08:06:19;;;;;;;2.67;1.80;;;;;16.90;101594.00;;;;12996127;22;20490;-84
2023/09/25 08:11:20;;;;;;;6.88;2.03;;;;;17.00;101589.00;;;;13030629;22;20181;-85
2023/09/25 08:16:23;;;;;;;12.13;2.35;;;;;17.20;101577.00;;;;13027529;22;20168;-84
2023/09/25 08:21:25;;;;;;;2.60;1.70;;;;;17.40;101578.00;;;;13026374;22;20176;-84
2023/09/25 08:26:27;;;;;;;5.47;2.22;;;;;17.80;101582.00;;;;13050153;22;20251;-83
2023/09/25 08:31:28;;;;;;;2.10;1.80;;;;;18.20;101591.00;;;;12950448;22;20231;-84
2023/09/25 08:36:30;;;;;;;5.18;1.80;;;;;18.30;101580.00;;;;12961631;22;20184;-85
2023/09/25 08:41:31;;;;;;;3.92;2.08;;;;;18.50;101585.00;;;;12943676;22;20173;-85
2023/09/25 08:46:33;;;;;;;2.78;1.73;;;;;18.70;101581.00;;;;12982134;22;20267;-85
2023/09/25 08:51:37;;;;;;;2.67;1.58;;;;;19.10;101583.00;;;;13009592;22;20164;-83
2023/09/25 08:56:39;;;;;;;3.40;1.70;;;;;19.50;101574.00;;;;12939252;22;20218;-82
2023/09/25 09:01:40;;;;;;;3.80;1.90;;;;;19.70;101587.00;;;;12937789;22;20176;-87
2023/09/25 09:06:42;;;;;;;4.18;1.83;;;;;19.90;101583.00;;;;12905688;22;20642;-84
2023/09/25 09:11:53;;;;;;;5.15;1.90;;;;;20.20;101590.00;;;;12975269;22;20172;-83
2023/09/25 09:16:58;;;;;;;6.97;1.80;;;;;20.60;101589.00;;;;12964008;22;20694;-85
2023/09/25 09:22:08;;;;;;;3.88;2.00;;;;;20.80;101592.00;;;;12909089;22;20179;-87
2023/09/25 09:27:11;;;;;;;3.22;1.52;;;;;21.00;101581.00;;;;12965239;22;20216;-83
2023/09/25 09:32:14;;;;;;;5.25;1.50;;;;;21.10;101601.00;;;;12903782;22;20219;-85
2023/09/25 09:37:15;;;;;;;3.80;1.73;;;;;21.50;101601.00;;;;12905976;22;20200;-82
2023/09/25 09:42:18;;;;;;;5.20;1.73;;;;;21.60;101591.00;;;;12895954;22;20173;-82
2023/09/25 09:47:21;;;;;;;4.32;1.80;;;;;21.50;101591.00;;;;12911892;22;20200;-78
2023/09/25 09:52:23;;;;;;;3.20;1.67;;;;;21.80;101592.00;;;;12949461;22;20631;-79
2023/09/25 09:57:24;;;;;;;2.72;1.60;;;;;21.90;101584.00;;;;12899132;22;1306339;-77
2023/09/25 10:02:30;;;;;;;3.95;1.90;;;;;22.00;101580.00;;;;12868515;23;20438;-77
2023/09/25 10:07:34;;;;;;;4.05;1.80;;;;;22.20;101579.00;;;;12892388;23;20355;-80
2023/09/25 10:12:45;;;;;;;5.10;2.28;;;;;22.50;101579.00;;;;12842357;23;20169;-76
2023/09/25 10:17:48;;;;;;;4.45;2.15;;;;;23.00;101590.00;;;;12843561;23;20549;-78
2023/09/25 10:22:50;;;;;;;1.80;1.38;;;;;23.30;101583.00;;;;12921237;23;20162;-80
2023/09/25 10:27:52;;;;;;;3.83;1.92;;;;;23.80;101574.00;;;;12867859;23;20232;-79
2023/09/25 10:32:55;;;;;;;3.50;1.60;;;;;24.40;101580.00;;;;12868056;23;20510;-79
2023/09/25 10:38:10;;;;;;;5.43;2.15;;;;;24.00;101592.00;;;;12842963;23;20161;-80
2023/09/25 10:43:33;;;;;;;4.32;1.73;;;;;23.90;101599.00;;;;12841596;23;20158;-80
2023/09/25 10:48:35;;;;;;;4.38;1.75;;;;;24.30;101597.00;;;;12866378;23;20224;-83
2023/09/25 10:53:37;;;;;;;3.50;1.90;;;;;24.60;101598.00;;;;12866643;23;20170;-83
2023/09/25 10:58:39;;;;;;;3.28;1.70;;;;;24.80;101593.00;;;;12841418;22;20231;-84
2023/09/25 11:03:42;;;;;;;3.63;1.60;;;;;25.20;101603.00;;;;12887738;23;20675;-84
2023/09/25 11:08:44;;;;;;;2.47;1.60;;;;;25.30;101605.00;;;;12867398;23;20696;-84
2023/09/25 11:13:46;;;;;;;4.95;1.85;;;;;25.50;101606.00;;;;12868729;23;20681;-83
2023/09/25 11:18:50;;;;;;;1.70;1.60;;;;;25.40;101608.00;;;;12866925;23;20170;-84
2023/09/25 11:23:52;;;;;;;4.07;1.75;;;;;25.50;101602.00;;;;12866125;23;20161;-83
2023/09/25 11:28:55;;;;;;;1.83;1.63;;;;;25.90;101599.00;;;;12910287;23;20284;-83
2023/09/25 11:33:57;;;;;;;2.00;1.58;;;;;26.20;101605.00;;;;12864822;23;20169;-82
2023/09/25 11:38:59;;;;;;;1.75;1.65;;;;;26.50;101614.00;;;;12864875;23;20162;-81
2023/09/25 11:44:04;;;;;;;2.50;1.55;;;;;26.00;101596.00;;;;12918780;23;20903;-83
2023/09/25 11:49:06;;;;;;;2.17;1.67;;;;;26.60;101605.00;;;;12891060;23;20296;-80
2023/09/25 11:54:08;;;;;;;1.80;1.42;;;;;26.50;101606.00;;;;12891231;23;20608;-82
2023/09/25 11:59:14;;;;;;;3.92;1.55;;;;;26.70;101614.00;;;;12867793;22;20188;-81
2023/09/25 12:04:16;;;;;;;3.58;1.88;;;;;26.80;101615.00;;;;12942407;23;20150;-80
2023/09/25 12:09:19;;;;;;;3.67;1.83;;;;;26.90;101616.00;;;;12935989;23;20178;-81
2023/09/25 12:14:21;;;;;;;4.57;1.63;;;;;27.10;101621.00;;;;12906949;23;20166;-81
2023/09/25 12:19:23;;;;;;;3.92;1.90;;;;;26.90;101618.00;;;;12936640;23;20211;-81
2023/09/25 12:24:25;;;;;;;4.57;1.85;;;;;26.80;101615.00;;;;12888963;23;20193;-81
2023/09/25 12:29:27;;;;;;;2.55;2.13;;;;;26.70;101613.00;;;;12909336;23;20198;-79
2023/09/25 12:34:30;;;;;;;3.13;2.25;;;;;26.80;101615.00;;;;12859129;23;20158;-82
2023/09/25 12:39:34;;;;;;;2.42;1.70;;;;;27.00;101620.00;;;;12909501;23;20223;-83
2023/09/25 12:44:36;;;;;;;2.83;2.33;;;;;27.00;101618.00;;;;12935485;23;20614;-82
2023/09/25 12:49:39;;;;;;;4.88;2.20;;;;;26.90;101623.00;;;;12879019;23;20731;-82
2023/09/25 12:54:41;;;;;;;4.13;2.10;;;;;26.70;101609.00;;;;12899866;23;20211;-82
2023/09/25 12:59:45;;;;;;;4.32;2.28;;;;;26.70;101613.00;;;;12897074;22;20253;-82
2023/09/25 13:04:48;;;;;;;2.85;1.90;;;;;26.70;101617.00;;;;12823741;23;20170;-81
2023/09/25 13:09:50;;;;;;;3.40;2.03;;;;;26.30;101613.00;;;;12897448;23;20185;-87
2023/09/25 13:14:52;;;;;;;3.60;2.20;;;;;26.20;101613.00;;;;12853012;23;20269;-87
2023/09/25 13:19:55;;;;;;;2.83;2.08;;;;;25.90;101602.00;;;;12859499;23;20162;-88
2023/09/25 13:24:57;;;;;;;4.82;2.08;;;;;25.50;101598.00;;;;12826024;23;20161;-87
2023/09/25 13:33:48;;;;;;;3.40;2.10;;;;;24.70;101597.00;;;;10388403;28;113115;-87
2023/09/25 13:38:50;;;;;;;5.40;2.00;;;;;24.60;101594.00;;;;10350040;28;20227;-87
2023/09/25 13:43:52;;;;;;;2.38;1.70;;;;;24.70;101592.00;;;;10357809;28;20195;-87
2023/09/25 13:48:54;;;;;;;3.15;2.17;;;;;25.00;101597.00;;;;10359818;28;20203;-86
2023/09/25 13:53:58;;;;;;;5.45;1.95;;;;;25.30;101597.00;;;;10344175;28;20196;-86
2023/09/25 13:59:00;;;;;;;4.38;2.78;;;;;25.20;101596.00;;;;10347754;28;20203;-87
2023/09/25 14:04:02;;;;;;;4.50;2.42;;;;;25.20;101590.00;;;;10349962;28;20212;-88
2023/09/25 14:09:05;;;;;;;3.78;2.15;;;;;25.10;101592.00;;;;10352729;28;20209;-86
2023/09/25 14:14:08;;;;;;;5.13;2.35;;;;;25.50;101582.00;;;;10335484;28;20223;-88
2023/09/25 14:19:10;;;;;;;3.78;1.90;;;;;25.10;101579.00;;;;10333147;28;20907;-79
2023/09/25 14:24:12;;;;;;;3.03;2.22;;;;;26.10;101561.00;;;;10329797;28;20208;-80
2023/09/25 14:29:14;;;;;;;2.95;1.95;;;;;24.80;101592.00;;;;10317248;28;20231;-81
2023/09/25 14:34:16;;;;;;;3.50;2.35;;;;;24.00;101587.00;;;;10347444;28;21859;-78
2023/09/25 14:39:18;;;;;;;3.30;2.20;;;;;23.60;101582.00;;;;10330201;28;20204;-79
2023/09/25 14:44:20;;;;;;;3.20;2.13;;;;;23.70;101581.00;;;;10333395;28;20199;-79
2023/09/25 14:49:22;;;;;;;4.75;2.00;;;;;23.90;101592.00;;;;10307039;28;20204;-80
2023/09/25 14:54:24;;;;;;;4.18;2.20;;;;;23.90;101577.00;;;;10291026;28;20272;-79
2023/09/25 14:59:27;;;;;;;5.90;2.20;;;;;23.60;101589.00;;;;10308477;28;20193;-79
2023/09/25 15:04:29;;;;;;;2.67;2.00;;;;;23.50;101586.00;;;;10292765;28;20192;-79
2023/09/25 15:09:31;;;;;;;2.47;1.80;;;;;23.60;101589.00;;;;10312765;28;20214;-79
2023/09/25 15:14:33;;;;;;;6.50;2.35;;;;;23.40;101596.00;;;;10305082;28;20289;-79
2023/09/25 15:19:35;;;;;;;4.68;2.65;;;;;23.30;101599.00;;;;10317200;28;20247;-80
2023/09/25 15:24:38;;;;;;;2.90;2.03;;;;;23.40;101602.00;;;;10312082;28;20196;-79
2023/09/25 15:29:41;;;;;;;5.18;2.10;;;;;23.30;101597.00;;;;10327681;28;20585;-87
2023/09/25 15:34:43;;;;;;;2.88;2.10;;;;;23.10;101602.00;;;;10317067;28;20220;-87
2023/09/25 15:39:45;;;;;;;5.53;2.10;;;;;23.00;101599.00;;;;10299414;28;20285;-87
2023/09/25 15:44:47;;;;;;;2.60;2.05;;;;;23.10;101614.00;;;;10315482;28;20239;-88
2023/09/25 15:49:50;;;;;;;3.80;2.20;;;;;23.00;101616.00;;;;10324604;28;20220;-88
2023/09/25 15:54:51;;;;;;;5.20;2.08;;;;;22.80;101615.00;;;;10326827;28;20180;-89
2023/09/25 15:59:53;;;;;;;4.85;2.25;;;;;22.60;101625.00;;;;10343015;28;20188;-91
2023/09/25 16:04:55;;;;;;;5.88;2.33;;;;;22.50;101623.00;;;;10330846;28;20189;-89
2023/09/25 16:09:58;;;;;;;3.67;2.22;;;;;22.40;101626.00;;;;10327115;28;20695;-88
2023/09/25 16:15:01;;;;;;;2.95;2.20;;;;;22.50;101626.00;;;;10329837;28;20227;-88
2023/09/25 16:20:03;;;;;;;2.63;2.05;;;;;22.60;101628.00;;;;10313692;28;20215;-88
2023/09/25 16:25:06;;;;;;;4.75;2.00;;;;;22.60;101624.00;;;;10343172;28;20184;-91
2023/09/25 16:30:08;;;;;;;4.00;2.20;;;;;22.40;101622.00;;;;10338118;28;20292;-88
2023/09/25 16:35:12;;;;;;;4.72;2.38;;;;;22.10;101628.00;;;;10330349;28;20200;-89
2023/09/25 16:40:14;;;;;;;6.22;2.35;;;;;21.80;101636.00;;;;10283498;28;20189;-78
2023/09/25 16:45:16;;;;;;;4.28;2.10;;;;;21.60;101643.00;;;;10312881;28;20191;-77
2023/09/25 16:50:18;;;;;;;4.32;2.53;;;;;21.50;101641.00;;;;10315536;28;20200;-76
2023/09/25 16:55:20;;;;;;;4.72;2.58;;;;;21.30;101647.00;;;;10286555;28;20239;-80
2023/09/25 17:00:22;;;;;;;4.72;2.78;;;;;21.10;101655.00;;;;10325399;28;20231;-76
2023/09/25 17:05:25;;;;;;;4.32;2.47;;;;;20.80;101655.00;;;;10306262;28;20211;-75
2023/09/25 17:10:27;;;;;;;6.22;2.88;;;;;20.60;101663.00;;;;10300380;28;20211;-76
2023/09/25 17:15:36;;;;;;;4.38;2.20;;;;;20.30;101663.00;;;;10305651;28;20244;-76
2023/09/25 17:20:39;;;;;;;3.67;2.60;;;;;20.00;101661.00;;;;10271604;28;20275;-77
2023/09/25 17:25:41;;;;;;;5.63;2.67;;;;;19.60;101668.00;;;;10310354;28;20247;-75
2023/09/25 17:30:43;;;;;;;4.65;3.00;;;;;19.30;101682.00;;;;10310265;28;20219;-75
2023/09/25 17:36:04;;;;;;;3.90;3.03;;;;;19.00;101691.00;;;;10314406;28;20394;-77
2023/09/25 17:41:09;;;;;;;7.55;2.72;;;;;18.80;101685.00;;;;10309234;28;20189;-76
2023/09/25 17:46:12;;;;;;;6.22;2.90;;;;;18.60;101684.00;;;;10281455;28;20275;-76
2023/09/25 17:51:14;;;;;;;7.18;3.25;;;;;18.50;101697.00;;;;10317665;28;20222;-88
2023/09/25 17:56:16;;;;;;;7.00;3.17;;;;;18.30;101695.00;;;;10307313;28;20188;-91
2023/09/25 18:01:18;;;;;;;6.90;3.00;;;;;18.10;101688.00;;;;10337115;28;20235;-88
2023/09/25 18:06:20;;;;;;;4.65;2.72;;;;;17.90;101698.00;;;;10311438;28;20213;-90
2023/09/25 18:11:22;;;;;;;7.47;3.08;;;;;17.70;101711.00;;;;10303384;28;20193;-87
2023/09/25 18:16:24;;;;;;;9.45;2.70;;;;;17.50;101703.00;;;;10311153;28;20192;-87
2023/09/25 18:21:26;;;;;;;3.85;2.80;;;;;17.40;101713.00;;;;10345191;28;20179;-87
2023/09/25 18:26:28;;;;;;;6.80;3.20;;;;;17.20;101708.00;;;;10366350;28;20191;-88
2023/09/25 18:31:30;;;;;;;5.60;3.28;;;;;17.10;101705.00;;;;10319328;28;20271;-90
2023/09/25 18:36:32;;;;;;;8.57;3.53;;;;;17.00;101704.00;;;;10349503;28;20196;-89
2023/09/25 18:41:34;;;;;;;6.53;2.83;;;;;16.90;101705.00;;;;10327641;28;20279;-90
2023/09/25 18:46:36;;;;;;;8.88;4.80;;;;;16.70;101704.00;;;;10347401;28;20200;-90
2023/09/25 18:51:38;;;;;;;4.85;3.63;;;;;16.60;101696.00;;;;10332900;28;20882;-90
2023/09/25 18:56:40;;;;;;;3.92;3.28;;;;;16.50;101701.00;;;;10312981;28;20214;-89
2023/09/25 19:01:42;;;;;;;7.10;3.65;;;;;16.40;101697.00;;;;10316763;28;20197;-77
2023/09/25 19:06:44;;;;;;;6.70;3.40;;;;;16.30;101695.00;;;;10331820;28;20601;-76
2023/09/25 19:11:46;;;;;;;7.20;3.70;;;;;16.20;101692.00;;;;10306218;28;20295;-75
2023/09/25 19:16:48;;;;;;;6.47;3.28;;;;;16.10;101694.00;;;;10297061;28;20220;-76
2023/09/25 19:21:50;;;;;;;7.35;4.05;;;;;16.00;101706.00;;;;10297957;28;20279;-76
2023/09/25 19:26:52;;;;;;;5.80;3.92;;;;;15.90;101702.00;;;;10311151;28;20191;-76
2023/09/25 19:31:54;;;;;;;5.95;3.50;;;;;15.80;101701.00;;;;10293945;28;20219;-75
2023/09/25 19:36:56;;;;;;;7.78;3.17;;;;;15.70;101708.00;;;;10316994;28;20254;-74
2023/09/25 19:41:58;;;;;;;4.20;3.10;;;;;15.60;101697.00;;;;10330108;28;20251;-75
2023/09/25 19:47:00;;;;;;;5.65;3.35;;;;;15.50;101697.00;;;;10322184;28;20331;-77
2023/09/25 19:52:03;;;;;;;6.68;3.22;;;;;15.40;101697.00;;;;10314811;28;20751;-75
2023/09/25 19:57:05;;;;;;;6.00;3.28;;;;;15.30;101695.00;;;;10329218;28;20196;-75
2023/09/25 20:02:07;;;;;;;4.78;3.22;;;;;15.30;101693.00;;;;10297427;28;20242;-77
2023/09/25 20:07:10;;;;;;;5.75;3.95;;;;;15.20;101706.00;;;;10321430;28;20203;-78
2023/09/25 20:12:13;;;;;;;7.38;3.63;;;;;15.10;101698.00;;;;10315137;28;20219;-77
2023/09/25 20:17:14;;;;;;;6.70;3.60;;;;;15.10;101697.00;;;;10275535;28;20259;-80
2023/09/25 20:22:16;;;;;;;4.43;2.90;;;;;15.00;101697.00;;;;10303256;28;20189;-78
2023/09/25 20:27:18;;;;;;;5.63;3.38;;;;;14.90;101686.00;;;;10314667;28;20201;-79
2023/09/25 20:32:20;;;;;;;6.93;3.38;;;;;14.90;101695.00;;;;10313282;28;20256;-79
2023/09/25 20:37:22;;;;;;;4.97;3.28;;;;;14.80;101694.00;;;;10306857;28;20199;-79
2023/09/25 20:42:24;;;;;;;7.10;4.20;;;;;14.70;101688.00;;;;10314161;28;20200;-78
2023/09/25 20:47:26;;;;;;;8.05;4.38;;;;;14.60;101679.00;;;;10314017;28;20850;-78
2023/09/25 20:52:28;;;;;;;6.40;3.90;;;;;14.60;101682.00;;;;10299010;28;20217;-79
2023/09/25 20:57:30;;;;;;;5.35;3.55;;;;;14.50;101675.00;;;;10290085;28;20247;-78
2023/09/25 21:02:32;;;;;;;6.65;3.75;;;;;14.40;101678.00;;;;10309369;28;20730;-79
2023/09/25 21:07:34;;;;;;;6.60;4.13;;;;;14.40;101664.00;;;;10297539;28;21405;-78
2023/09/25 21:12:36;;;;;;;6.73;4.30;;;;;14.40;101666.00;;;;10313175;28;20732;-78
2023/09/25 21:17:38;;;;;;;8.15;4.00;;;;;14.30;101667.00;;;;10327790;28;20279;-79
2023/09/25 21:22:40;;;;;;;8.30;3.83;;;;;14.20;101668.00;;;;10285134;28;20622;-77
2023/09/25 21:27:42;;;;;;;7.45;3.85;;;;;14.10;101676.00;;;;10312014;28;20199;-75
2023/09/25 21:32:44;;;;;;;5.20;3.40;;;;;14.10;101678.00;;;;10310873;28;20227;-75
2023/09/25 21:37:46;;;;;;;7.43;3.97;;;;;14.00;101681.00;;;;10298456;28;20204;-76
2023/09/25 21:42:48;;;;;;;8.20;4.20;;;;;14.00;101670.00;;;;10312489;28;20192;-76
2023/09/25 21:47:50;;;;;;;9.53;3.83;;;;;13.90;101667.00;;;;10309746;28;20200;-76
2023/09/25 21:52:52;;;;;;;8.27;4.50;;;;;13.80;101677.00;;;;10298297;28;20831;-76
2023/09/25 21:57:54;;;;;;;7.83;4.43;;;;;13.70;101668.00;;;;10299667;28;20196;-75
2023/09/25 22:02:56;;;;;;;7.97;4.80;;;;;13.70;101678.00;;;;10335730;28;20180;-79
2023/09/25 22:07:58;;;;;;;7.57;4.67;;;;;13.60;101677.00;;;;10297352;28;20204;-77
2023/09/25 22:13:00;;;;;;;6.80;3.90;;;;;13.50;101684.00;;;;10317952;28;20266;-74
2023/09/25 22:18:02;;;;;;;6.40;4.77;;;;;13.50;101670.00;;;;10304405;28;20566;-76
2023/09/25 22:23:04;;;;;;;10.20;5.80;;;;;13.40;101680.00;;;;10289511;28;20192;-78
2023/09/25 22:28:07;;;;;;;6.67;5.17;;;;;13.40;101674.00;;;;10293045;28;20219;-77
2023/09/25 22:33:09;;;;;;;12.87;5.83;;;;;13.30;101665.00;;;;10310494;28;20232;-80
2023/09/25 22:38:11;;;;;;;9.10;5.80;;;;;13.30;101668.00;;;;10314859;28;20192;-80
2023/09/25 22:43:15;;;;;;;11.13;5.45;;;;;13.30;101664.00;;;;10320161;28;20204;-81
2023/09/25 22:48:17;;;;;;;11.90;5.83;;;;;13.20;101661.00;;;;10317280;28;20196;-81
2023/09/25 22:53:19;;;;;;;13.47;5.37;;;;;13.20;101649.00;;;;10318072;28;20228;-80
2023/09/25 22:58:21;;;;;;;8.87;5.73;;;;;13.20;101649.00;;;;10319400;28;20254;-80
2023/09/25 23:03:23;;;;;;;9.73;6.20;;;;;13.20;101640.00;;;;10335673;28;20189;-81
2023/09/25 23:08:25;;;;;;;9.80;5.83;;;;;13.20;101647.00;;;;10317564;28;20197;-80
2023/09/25 23:13:28;;;;;;;9.50;5.73;;;;;13.20;101642.00;;;;10304417;28;20236;-81
2023/09/25 23:18:30;;;;;;;11.67;5.60;;;;;13.20;101642.00;;;;10301971;28;20287;-80
2023/09/25 23:23:32;;;;;;;8.03;5.43;;;;;13.10;101635.00;;;;10316189;28;20199;-81
2023/09/25 23:28:34;;;;;;;6.67;4.47;;;;;13.10;101641.00;;;;10328649;28;20263;-81
2023/09/25 23:33:36;;;;;;;10.10;4.97;;;;;13.00;101637.00;;;;10313462;28;20240;-81
2023/09/25 23:38:38;;;;;;;6.63;4.40;;;;;12.90;101633.00;;;;10308961;28;20199;-76
2023/09/25 23:43:40;;;;;;;8.53;4.80;;;;;12.90;101627.00;;;;10292558;28;20200;-75
2023/09/25 23:48:43;;;;;;;8.80;5.07;;;;;12.90;101630.00;;;;10303791;28;20275;-77
2023/09/25 23:53:45;;;;;;;6.63;5.03;;;;;12.80;101620.00;;;;10301186;28;20886;-76
2023/09/25 23:58:47;;;;;;;6.80;4.93;;;;;12.80;101621.00;;;;10287001;28;20184;-74
